Аэропорт: Витязево. Анапа

ICAO: URKA

METAR:
2021-07-28 12:30:00
URKA 281230Z 03007MPS CAVOK 31/14 Q1016 R04/010070 NOSIG RMK QFE758/1010
METAR:
2021-07-28 10:51:00
TAF URKA 281051Z 2812/2912 06009G14MPS CAVOK TEMPO 2812/2912 02003G08MPS